Time;durP1;ratioP1;P1;durP2;ratioP2;P2;SDS_P1;SDS_P2;PMS_P1;PMS_P2;Temp;Humidity;BMP_temperature;BMP_pressure;BME280_temperature;BME280_humidity;BME280_pressure;Samples;Min_cycle;Max_cycle;Signal;HPM_P1;HPM_P2
2021/05/25 00:01:50;;;;;;;0.60;0.60;;;;;;;;;;5100047;28;20243;-63
2021/05/25 00:04:17;;;;;;;0.47;0.47;;;;;;;;;;5106697;28;20431;-63
2021/05/25 00:06:42;;;;;;;0.60;0.50;;;;;;;;;;5110072;28;20491;-63
2021/05/25 00:09:08;;;;;;;0.80;0.80;;;;;;;;;;5106345;28;20261;-63
2021/05/25 00:11:34;;;;;;;0.50;0.50;;;;;;;;;;5105345;28;20970;-63
2021/05/25 00:14:03;;;;;;;0.40;0.40;;;;;;;;;;5114052;28;20447;-63
2021/05/25 00:16:29;;;;;;;0.50;0.50;;;;;;;;;;5112205;28;20419;-63
2021/05/25 00:18:55;;;;;;;0.50;0.50;;;;;;;;;;5113734;28;20169;-63
2021/05/25 00:21:21;;;;;;;0.47;0.47;;;;;;;;;;5104831;28;20450;-62
2021/05/25 00:23:47;;;;;;;0.57;0.57;;;;;;;;;;5094485;28;20434;-63
2021/05/25 00:26:13;;;;;;;0.50;0.50;;;;;;;;;;5100084;28;20430;-63
2021/05/25 00:28:39;;;;;;;0.40;0.40;;;;;;;;;;5113192;28;20462;-63
2021/05/25 00:31:05;;;;;;;0.47;0.47;;;;;;;;;;5097689;28;20444;-63
2021/05/25 00:33:31;;;;;;;0.40;0.40;;;;;;;;;;5093130;28;20186;-63
2021/05/25 00:35:58;;;;;;;0.57;0.47;;;;;;;;;;5106926;28;20925;-63
2021/05/25 00:38:24;;;;;;;0.50;0.50;;;;;;;;;;5113220;28;20402;-63
2021/05/25 00:40:50;;;;;;;0.50;0.50;;;;;;;;;;5112008;28;20702;-63
2021/05/25 00:43:16;;;;;;;0.82;0.82;;;;;;;;;;5113520;28;20433;-63
2021/05/25 00:45:42;;;;;;;0.53;0.53;;;;;;;;;;5094393;28;20177;-63
2021/05/25 00:48:08;;;;;;;0.55;0.55;;;;;;;;;;5093165;28;20400;-63
2021/05/25 00:50:34;;;;;;;0.80;0.50;;;;;;;;;;5102332;28;20185;-63
2021/05/25 00:53:01;;;;;;;0.40;0.40;;;;;;;;;;5113419;28;20169;-62
2021/05/25 00:55:32;;;;;;;0.50;0.50;;;;;;;;;;5113231;28;20204;-63
2021/05/25 00:57:58;;;;;;;0.40;0.40;;;;;;;;;;5113347;28;20535;-63
2021/05/25 01:00:30;;;;;;;0.40;0.40;;;;;;;;;;5113013;28;20669;-63
2021/05/25 01:02:56;;;;;;;0.60;0.60;;;;;;;;;;5112525;28;20176;-62
2021/05/25 01:05:22;;;;;;;0.40;0.40;;;;;;;;;;5113316;28;20177;-62
2021/05/25 01:07:49;;;;;;;0.40;0.40;;;;;;;;;;5095042;28;20447;-63
2021/05/25 01:10:19;;;;;;;0.50;0.50;;;;;;;;;;5112800;28;20671;-62
2021/05/25 01:12:56;;;;;;;0.40;0.40;;;;;;;;;;5113133;28;20730;-63
2021/05/25 01:15:23;;;;;;;0.88;0.50;;;;;;;;;;5112916;28;20690;-63
2021/05/25 01:17:51;;;;;;;0.40;0.40;;;;;;;;;;5112893;28;20176;-63
2021/05/25 01:20:19;;;;;;;0.60;0.50;;;;;;;;;;5112586;28;20174;-63
2021/05/25 01:22:44;;;;;;;0.50;0.50;;;;;;;;;;5112762;28;20620;-63
2021/05/25 01:25:14;;;;;;;0.50;0.50;;;;;;;;;;5112717;28;20208;-65
2021/05/25 01:27:41;;;;;;;0.40;0.40;;;;;;;;;;5112526;28;20406;-65
2021/05/25 01:30:08;;;;;;;0.45;0.45;;;;;;;;;;5112578;28;20176;-65
2021/05/25 01:32:34;;;;;;;0.50;0.50;;;;;;;;;;5112456;28;20274;-65
2021/05/25 01:35:00;;;;;;;0.60;0.60;;;;;;;;;;5112479;28;20188;-65
2021/05/25 01:37:27;;;;;;;0.77;0.70;;;;;;;;;;5112536;28;20173;-65
2021/05/25 01:39:55;;;;;;;0.60;0.60;;;;;;;;;;5112232;28;20249;-65
2021/05/25 01:42:21;;;;;;;0.40;0.40;;;;;;;;;;5112329;28;20183;-64
2021/05/25 01:44:47;;;;;;;0.40;0.40;;;;;;;;;;5112477;28;20642;-64
2021/05/25 01:47:15;;;;;;;0.40;0.40;;;;;;;;;;5112296;28;20184;-64
2021/05/25 01:49:41;;;;;;;0.75;0.75;;;;;;;;;;5112071;28;20200;-64
2021/05/25 01:52:07;;;;;;;0.60;0.60;;;;;;;;;;5112366;28;20186;-64
2021/05/25 01:54:33;;;;;;;0.60;0.60;;;;;;;;;;5112114;28;20943;-65
2021/05/25 01:56:59;;;;;;;1.37;0.80;;;;;;;;;;5112229;28;20799;-65
2021/05/25 01:59:25;;;;;;;0.70;0.50;;;;;;;;;;5111446;28;20440;-64
2021/05/25 02:01:51;;;;;;;0.50;0.50;;;;;;;;;;5112102;28;20429;-64
2021/05/25 02:04:17;;;;;;;0.30;0.30;;;;;;;;;;5112325;28;20439;-64
2021/05/25 02:06:43;;;;;;;0.50;0.50;;;;;;;;;;5112092;28;20763;-64
2021/05/25 02:09:09;;;;;;;0.50;0.50;;;;;;;;;;5111907;28;20852;-64
2021/05/25 02:11:36;;;;;;;0.63;0.60;;;;;;;;;;5111981;28;20528;-64
2021/05/25 02:14:02;;;;;;;0.40;0.40;;;;;;;;;;5113961;28;20455;-63
2021/05/25 02:16:28;;;;;;;0.45;0.45;;;;;;;;;;5116303;28;20170;-65
2021/05/25 02:18:54;;;;;;;0.70;0.70;;;;;;;;;;5097771;28;20590;-65
2021/05/25 02:21:21;;;;;;;0.47;0.47;;;;;;;;;;5116199;28;20186;-65
2021/05/25 02:23:48;;;;;;;0.40;0.40;;;;;;;;;;5116209;28;20419;-64
2021/05/25 02:26:14;;;;;;;0.40;0.40;;;;;;;;;;5115825;28;20551;-64
2021/05/25 02:28:40;;;;;;;0.60;0.60;;;;;;;;;;5115725;28;20259;-65
2021/05/25 02:31:06;;;;;;;0.50;0.50;;;;;;;;;;5115919;28;20343;-64
2021/05/25 02:33:32;;;;;;;0.40;0.40;;;;;;;;;;5116046;28;20419;-65
2021/05/25 02:35:59;;;;;;;0.40;0.40;;;;;;;;;;5115993;28;20631;-64
2021/05/25 02:38:26;;;;;;;0.40;0.40;;;;;;;;;;5115754;28;20166;-65
2021/05/25 02:40:52;;;;;;;0.47;0.47;;;;;;;;;;5115845;28;20586;-64
2021/05/25 02:43:20;;;;;;;0.73;0.50;;;;;;;;;;5115736;28;20178;-64
2021/05/25 02:45:46;;;;;;;0.63;0.63;;;;;;;;;;5116086;28;20550;-65
2021/05/25 02:48:12;;;;;;;3.80;1.17;;;;;;;;;;5115807;28;20222;-65
2021/05/25 02:50:39;;;;;;;0.57;0.57;;;;;;;;;;5115392;28;20208;-64
2021/05/25 02:53:05;;;;;;;0.50;0.50;;;;;;;;;;5115677;28;20259;-65
2021/05/25 02:55:32;;;;;;;0.50;0.50;;;;;;;;;;5115555;28;20284;-65
2021/05/25 02:57:59;;;;;;;0.40;0.40;;;;;;;;;;5115684;28;20470;-64
2021/05/25 03:00:26;;;;;;;0.47;0.47;;;;;;;;;;5096939;28;20193;-64
2021/05/25 03:02:53;;;;;;;0.40;0.40;;;;;;;;;;5115311;28;20539;-65
2021/05/25 03:05:22;;;;;;;0.30;0.30;;;;;;;;;;5115417;28;20192;-64
2021/05/25 03:07:48;;;;;;;0.40;0.40;;;;;;;;;;5115248;28;20221;-64
2021/05/25 03:10:17;;;;;;;1.58;0.90;;;;;;;;;;5114924;28;20202;-64
2021/05/25 03:12:44;;;;;;;0.40;0.40;;;;;;;;;;5115171;28;20675;-65
2021/05/25 03:15:15;;;;;;;0.50;0.50;;;;;;;;;;5115376;28;20201;-65
2021/05/25 03:17:41;;;;;;;0.50;0.50;;;;;;;;;;5115302;28;20208;-64
2021/05/25 03:20:08;;;;;;;0.40;0.40;;;;;;;;;;5115038;28;20183;-65
2021/05/25 03:22:34;;;;;;;0.50;0.50;;;;;;;;;;5114968;28;20225;-64
2021/05/25 03:25:00;;;;;;;0.50;0.50;;;;;;;;;;5114920;28;20205;-65
2021/05/25 03:27:26;;;;;;;9.43;1.37;;;;;;;;;;5113079;28;20264;-64
2021/05/25 03:29:52;;;;;;;0.40;0.40;;;;;;;;;;5114333;28;20555;-64
2021/05/25 03:32:18;;;;;;;0.40;0.40;;;;;;;;;;5114881;28;20252;-64
2021/05/25 03:34:44;;;;;;;0.50;0.50;;;;;;;;;;5114816;28;20243;-64
2021/05/25 03:37:10;;;;;;;0.52;0.52;;;;;;;;;;5114880;28;20570;-64
2021/05/25 03:39:36;;;;;;;0.50;0.50;;;;;;;;;;5114552;28;20628;-65
2021/05/25 03:42:02;;;;;;;0.50;0.50;;;;;;;;;;5114591;28;20185;-65
2021/05/25 03:44:28;;;;;;;0.40;0.40;;;;;;;;;;5114671;28;20585;-64
2021/05/25 03:46:55;;;;;;;0.65;0.65;;;;;;;;;;5114823;28;20250;-64
2021/05/25 03:49:21;;;;;;;0.40;0.40;;;;;;;;;;5114480;28;20227;-64
2021/05/25 03:51:47;;;;;;;0.40;0.40;;;;;;;;;;5114423;28;20190;-65
2021/05/25 03:54:18;;;;;;;0.50;0.50;;;;;;;;;;5114321;28;21255;-63
2021/05/25 03:56:52;;;;;;;0.55;0.55;;;;;;;;;;5112607;28;20939;-65
2021/05/25 03:59:18;;;;;;;1.38;0.57;;;;;;;;;;5114179;28;20184;-64
2021/05/25 04:01:44;;;;;;;0.70;0.50;;;;;;;;;;5114279;28;20193;-65
2021/05/25 04:04:11;;;;;;;0.75;0.75;;;;;;;;;;5114239;28;20452;-65
2021/05/25 04:06:37;;;;;;;0.60;0.60;;;;;;;;;;5127160;22;20275;-62
2021/05/25 04:09:05;;;;;;;0.40;0.40;;;;;;;;;;5113313;28;20179;-62
2021/05/25 04:11:31;;;;;;;0.40;0.40;;;;;;;;;;5113917;28;20170;-62
2021/05/25 04:13:57;;;;;;;0.40;0.40;;;;;;;;;;5113927;28;20203;-62
2021/05/25 04:16:23;;;;;;;0.40;0.40;;;;;;;;;;5082513;28;20511;-62
2021/05/25 04:18:49;;;;;;;0.60;0.60;;;;;;;;;;5093441;28;20467;-62
2021/05/25 04:21:14;;;;;;;0.40;0.40;;;;;;;;;;5093503;28;20169;-62
2021/05/25 04:23:40;;;;;;;0.60;0.60;;;;;;;;;;5083364;28;20467;-62
2021/05/25 04:26:06;;;;;;;0.40;0.40;;;;;;;;;;5087739;28;20427;-62
2021/05/25 04:28:32;;;;;;;0.50;0.50;;;;;;;;;;5091783;28;20166;-62
2021/05/25 04:30:58;;;;;;;3.95;0.60;;;;;;;;;;5055112;28;20416;-62
2021/05/25 04:33:25;;;;;;;0.40;0.40;;;;;;;;;;5088937;28;20545;-62
2021/05/25 04:35:51;;;;;;;0.40;0.40;;;;;;;;;;5072346;28;20425;-62
2021/05/25 04:38:17;;;;;;;0.57;0.57;;;;;;;;;;5072737;28;20178;-61
2021/05/25 04:40:44;;;;;;;0.40;0.40;;;;;;;;;;5073445;28;20619;-62
2021/05/25 04:43:10;;;;;;;0.50;0.50;;;;;;;;;;5080610;28;20469;-63
2021/05/25 04:45:38;;;;;;;0.40;0.40;;;;;;;;;;5072708;28;20285;-63
2021/05/25 04:48:05;;;;;;;0.50;0.50;;;;;;;;;;5073948;28;20405;-63
2021/05/25 04:50:31;;;;;;;0.40;0.40;;;;;;;;;;5092661;28;20215;-63
2021/05/25 04:52:57;;;;;;;0.50;0.50;;;;;;;;;;5092326;28;20709;-63
2021/05/25 04:55:23;;;;;;;0.37;0.37;;;;;;;;;;5074787;28;20321;-63
2021/05/25 04:57:50;;;;;;;0.80;0.80;;;;;;;;;;5073209;28;20453;-63
2021/05/25 05:00:17;;;;;;;0.40;0.40;;;;;;;;;;5077170;28;20647;-63
2021/05/25 05:02:43;;;;;;;0.38;0.38;;;;;;;;;;5075126;28;20553;-63
2021/05/25 05:05:10;;;;;;;0.40;0.40;;;;;;;;;;5075847;28;20227;-63
2021/05/25 05:07:36;;;;;;;0.35;0.35;;;;;;;;;;5093269;28;20434;-62
2021/05/25 05:10:03;;;;;;;0.30;0.30;;;;;;;;;;5112637;28;20176;-63
2021/05/25 05:12:29;;;;;;;0.50;0.50;;;;;;;;;;5099103;28;20190;-63
2021/05/25 05:14:56;;;;;;;0.40;0.40;;;;;;;;;;5092299;28;20285;-63
2021/05/25 05:17:24;;;;;;;0.50;0.50;;;;;;;;;;5092165;28;20187;-63
2021/05/25 05:19:51;;;;;;;0.40;0.40;;;;;;;;;;5091961;28;20198;-63
2021/05/25 05:22:17;;;;;;;0.40;0.40;;;;;;;;;;5092167;28;20178;-63
2021/05/25 05:24:42;;;;;;;0.47;0.47;;;;;;;;;;5092451;28;20227;-63
2021/05/25 05:27:08;;;;;;;0.40;0.40;;;;;;;;;;5092451;28;20607;-63
2021/05/25 05:29:34;;;;;;;0.75;0.75;;;;;;;;;;5092223;28;20422;-63
2021/05/25 05:32:00;;;;;;;0.40;0.40;;;;;;;;;;5092647;28;20663;-63
2021/05/25 05:34:27;;;;;;;0.40;0.40;;;;;;;;;;5092460;28;20479;-63
2021/05/25 05:36:52;;;;;;;0.40;0.40;;;;;;;;;;5092030;28;20432;-62
2021/05/25 05:39:18;;;;;;;0.40;0.40;;;;;;;;;;5092281;28;20174;-64
2021/05/25 05:41:44;;;;;;;0.40;0.40;;;;;;;;;;5093139;28;20444;-63
2021/05/25 05:44:10;;;;;;;0.50;0.50;;;;;;;;;;5089645;28;20195;-63
2021/05/25 05:46:36;;;;;;;0.50;0.50;;;;;;;;;;5091904;28;20880;-63
2021/05/25 05:49:03;;;;;;;0.40;0.40;;;;;;;;;;5089760;28;20252;-61
2021/05/25 05:51:31;;;;;;;0.40;0.40;;;;;;;;;;5090659;28;20443;-62
2021/05/25 05:53:58;;;;;;;0.40;0.40;;;;;;;;;;5091481;28;20201;-62
2021/05/25 05:56:24;;;;;;;0.40;0.40;;;;;;;;;;5081588;28;20198;-62
2021/05/25 05:58:50;;;;;;;0.50;0.50;;;;;;;;;;5071148;28;20174;-62
2021/05/25 06:01:17;;;;;;;0.30;0.30;;;;;;;;;;5071445;28;20589;-62
2021/05/25 06:03:44;;;;;;;0.40;0.40;;;;;;;;;;5071430;28;20179;-63
2021/05/25 06:06:11;;;;;;;0.80;0.60;;;;;;;;;;5076074;28;20207;-62
2021/05/25 06:08:37;;;;;;;0.40;0.40;;;;;;;;;;5071297;28;20167;-64
2021/05/25 06:11:03;;;;;;;0.50;0.50;;;;;;;;;;5087857;28;20262;-64
2021/05/25 06:13:29;;;;;;;0.40;0.40;;;;;;;;;;5089361;28;20710;-63
2021/05/25 06:15:58;;;;;;;0.50;0.50;;;;;;;;;;5090600;28;20276;-63
2021/05/25 06:18:24;;;;;;;0.50;0.50;;;;;;;;;;5091103;28;20428;-64
2021/05/25 06:20:50;;;;;;;0.70;0.70;;;;;;;;;;5090599;28;20174;-64
2021/05/25 06:23:16;;;;;;;0.53;0.53;;;;;;;;;;5090554;28;20763;-64
2021/05/25 06:25:42;;;;;;;0.50;0.50;;;;;;;;;;5090466;28;20946;-64
2021/05/25 06:28:08;;;;;;;0.50;0.50;;;;;;;;;;5091046;28;20423;-65
2021/05/25 06:30:36;;;;;;;0.40;0.40;;;;;;;;;;5089964;28;20178;-64
2021/05/25 06:33:02;;;;;;;0.93;0.93;;;;;;;;;;5090419;28;20308;-61
2021/05/25 06:35:28;;;;;;;0.40;0.40;;;;;;;;;;5090458;28;20209;-64
2021/05/25 06:37:55;;;;;;;0.50;0.50;;;;;;;;;;5091020;28;20193;-64
2021/05/25 06:40:21;;;;;;;0.70;0.60;;;;;;;;;;5090935;28;20167;-62
2021/05/25 06:42:47;;;;;;;0.40;0.40;;;;;;;;;;5090583;28;20182;-62
2021/05/25 06:45:13;;;;;;;0.40;0.40;;;;;;;;;;5090827;28;20460;-64
2021/05/25 06:47:39;;;;;;;0.40;0.40;;;;;;;;;;5090632;28;20495;-62
2021/05/25 06:50:05;;;;;;;0.30;0.30;;;;;;;;;;5090752;28;20202;-63
2021/05/25 06:52:31;;;;;;;0.50;0.50;;;;;;;;;;5091292;28;20891;-63
2021/05/25 06:55:00;;;;;;;1.83;1.13;;;;;;;;;;5090459;28;20208;-63
2021/05/25 06:57:26;;;;;;;0.40;0.40;;;;;;;;;;5086765;28;20991;-65
2021/05/25 06:59:52;;;;;;;0.40;0.30;;;;;;;;;;5091140;28;20175;-63
2021/05/25 07:02:19;;;;;;;0.50;0.50;;;;;;;;;;5094367;28;20174;-62
2021/05/25 07:04:45;;;;;;;0.70;0.50;;;;;;;;;;5093903;28;20423;-63
2021/05/25 07:07:11;;;;;;;0.57;0.57;;;;;;;;;;5094071;28;20209;-63
2021/05/25 07:09:37;;;;;;;0.50;0.50;;;;;;;;;;5093910;28;20953;-63
2021/05/25 07:12:03;;;;;;;0.60;0.60;;;;;;;;;;5094318;28;20411;-63
2021/05/25 07:14:29;;;;;;;0.40;0.40;;;;;;;;;;5093669;28;20966;-63
2021/05/25 07:16:56;;;;;;;0.40;0.40;;;;;;;;;;5063621;28;20582;-63
2021/05/25 07:19:22;;;;;;;0.50;0.50;;;;;;;;;;5073404;28;20642;-63
2021/05/25 07:21:48;;;;;;;0.55;0.55;;;;;;;;;;5090221;28;20177;-63
2021/05/25 07:24:14;;;;;;;0.73;0.40;;;;;;;;;;5093526;28;20175;-63
2021/05/25 07:26:41;;;;;;;0.40;0.40;;;;;;;;;;5094184;28;20580;-63
2021/05/25 07:29:07;;;;;;;0.50;0.40;;;;;;;;;;5093764;28;20447;-63
2021/05/25 07:31:33;;;;;;;0.40;0.40;;;;;;;;;;5094374;28;20668;-63
2021/05/25 07:33:59;;;;;;;0.32;0.30;;;;;;;;;;5094006;28;20669;-63
2021/05/25 07:36:25;;;;;;;0.50;0.50;;;;;;;;;;5093446;28;20186;-63
2021/05/25 07:38:50;;;;;;;1.33;1.23;;;;;;;;;;5093563;28;20404;-63
2021/05/25 07:41:16;;;;;;;1.23;1.23;;;;;;;;;;5093859;28;20462;-63
2021/05/25 07:43:44;;;;;;;1.10;0.40;;;;;;;;;;5093772;28;20400;-63
2021/05/25 07:46:10;;;;;;;0.80;0.50;;;;;;;;;;5093202;28;20416;-64
2021/05/25 07:48:36;;;;;;;0.60;0.60;;;;;;;;;;5093588;28;20212;-64
2021/05/25 07:51:02;;;;;;;0.60;0.60;;;;;;;;;;5093479;28;20167;-64
2021/05/25 07:53:28;;;;;;;1.23;0.50;;;;;;;;;;5087004;28;20492;-64
2021/05/25 07:55:54;;;;;;;0.40;0.40;;;;;;;;;;5090460;28;20456;-64
2021/05/25 07:58:20;;;;;;;0.60;0.60;;;;;;;;;;5075053;28;20481;-63
2021/05/25 08:00:46;;;;;;;0.30;0.30;;;;;;;;;;5093312;28;20412;-64
2021/05/25 08:03:13;;;;;;;0.50;0.50;;;;;;;;;;5093248;28;20898;-64
2021/05/25 08:05:39;;;;;;;0.50;0.50;;;;;;;;;;5074718;28;20222;-65
2021/05/25 08:08:05;;;;;;;0.40;0.40;;;;;;;;;;5093640;28;20201;-64
2021/05/25 08:10:31;;;;;;;0.47;0.47;;;;;;;;;;5092712;28;20420;-64
2021/05/25 08:12:58;;;;;;;0.68;0.68;;;;;;;;;;5092479;28;20182;-64
2021/05/25 08:15:26;;;;;;;0.40;0.40;;;;;;;;;;5093360;28;20202;-64
2021/05/25 08:20:19;;;;;;;0.40;0.40;;;;;;;;;;5093088;28;20617;-64
2021/05/25 08:22:46;;;;;;;0.40;0.40;;;;;;;;;;5092187;28;20400;-63
2021/05/25 08:25:13;;;;;;;0.88;0.77;;;;;;;;;;5092332;28;20213;-61
2021/05/25 08:27:40;;;;;;;0.60;0.60;;;;;;;;;;5093039;28;20200;-64
2021/05/25 08:30:06;;;;;;;0.40;0.40;;;;;;;;;;5092754;28;20676;-64
2021/05/25 08:32:32;;;;;;;0.55;0.55;;;;;;;;;;5093162;28;20182;-64
2021/05/25 08:34:59;;;;;;;0.60;0.60;;;;;;;;;;5092908;28;20704;-64
2021/05/25 08:37:25;;;;;;;0.60;0.60;;;;;;;;;;5092699;28;20770;-63
2021/05/25 08:39:51;;;;;;;0.60;0.60;;;;;;;;;;5092684;28;20181;-61
2021/05/25 08:42:17;;;;;;;1.13;0.50;;;;;;;;;;5073744;28;20277;-64
2021/05/25 08:44:43;;;;;;;0.70;0.40;;;;;;;;;;5080808;28;20182;-64
2021/05/25 08:47:09;;;;;;;0.60;0.60;;;;;;;;;;5092116;28;20205;-64
2021/05/25 08:49:35;;;;;;;0.50;0.47;;;;;;;;;;5092283;28;20411;-64
2021/05/25 08:52:05;;;;;;;0.60;0.50;;;;;;;;;;5092677;28;20186;-63
2021/05/25 08:54:31;;;;;;;0.43;0.33;;;;;;;;;;5092074;28;20194;-64
2021/05/25 08:56:57;;;;;;;0.50;0.50;;;;;;;;;;5092070;28;20430;-64
2021/05/25 08:59:23;;;;;;;10.40;4.77;;;;;;;;;;5091789;28;20814;-64
2021/05/25 09:01:49;;;;;;;1.57;0.60;;;;;;;;;;5089491;28;20400;-64
2021/05/25 09:04:17;;;;;;;1.00;0.40;;;;;;;;;;5091639;28;20413;-64
2021/05/25 09:06:47;;;;;;;0.50;0.30;;;;;;;;;;5091761;28;21013;-64
2021/05/25 09:09:18;;;;;;;0.47;0.47;;;;;;;;;;5092150;28;20752;-64
2021/05/25 09:12:01;;;;;;;0.40;0.30;;;;;;;;;;5091762;28;20400;-64
2021/05/25 09:14:27;;;;;;;0.53;0.37;;;;;;;;;;5086876;28;21004;-62
2021/05/25 09:17:12;;;;;;;0.40;0.30;;;;;;;;;;5086770;28;20432;-63
2021/05/25 09:19:47;;;;;;;4.30;0.60;;;;;;;;;;5088979;28;20436;-64
2021/05/25 09:22:24;;;;;;;0.57;0.57;;;;;;;;;;5090052;28;20410;-64
2021/05/25 09:24:50;;;;;;;0.50;0.40;;;;;;;;;;5091789;28;20370;-64
2021/05/25 09:27:29;;;;;;;0.40;0.40;;;;;;;;;;5091856;28;20420;-64
2021/05/25 09:30:09;;;;;;;0.40;0.40;;;;;;;;;;5091724;28;20461;-64
2021/05/25 09:32:38;;;;;;;0.47;0.47;;;;;;;;;;5092010;28;20438;-64
2021/05/25 09:35:07;;;;;;;0.53;0.50;;;;;;;;;;5091911;28;20493;-64
2021/05/25 09:37:41;;;;;;;0.43;0.43;;;;;;;;;;5091966;28;20503;-64
2021/05/25 09:40:08;;;;;;;0.45;0.45;;;;;;;;;;5091689;28;20558;-64
2021/05/25 09:42:34;;;;;;;0.40;0.40;;;;;;;;;;5091857;28;20250;-63
2021/05/25 09:45:01;;;;;;;0.40;0.40;;;;;;;;;;5091886;28;20214;-64
2021/05/25 09:47:34;;;;;;;0.50;0.50;;;;;;;;;;5091667;28;20408;-63
2021/05/25 09:50:00;;;;;;;0.40;0.40;;;;;;;;;;5091329;28;20174;-63
2021/05/25 09:52:27;;;;;;;0.52;0.52;;;;;;;;;;5091783;28;20182;-63
2021/05/25 09:55:07;;;;;;;0.40;0.40;;;;;;;;;;5091479;28;20198;-63
2021/05/25 09:57:59;;;;;;;0.30;0.30;;;;;;;;;;5091898;28;20170;-63
2021/05/25 10:00:28;;;;;;;0.55;0.55;;;;;;;;;;5087693;28;20236;-65
2021/05/25 10:03:13;;;;;;;0.50;0.50;;;;;;;;;;5091700;28;20677;-64
2021/05/25 10:05:41;;;;;;;0.70;0.60;;;;;;;;;;5112402;22;20483;-64
2021/05/25 10:08:07;;;;;;;11.93;5.83;;;;;;;;;;5091448;28;20409;-63
2021/05/25 10:10:34;;;;;;;1.90;0.60;;;;;;;;;;5071183;28;20919;-63
2021/05/25 10:13:00;;;;;;;1.20;0.40;;;;;;;;;;5091220;28;20914;-63
2021/05/25 10:15:27;;;;;;;1.73;0.60;;;;;;;;;;5091219;28;21082;-64
2021/05/25 10:20:26;;;;;;;1.80;0.50;;;;;;;;;;5091212;28;20408;-66
2021/05/25 10:22:53;;;;;;;1.47;0.57;;;;;;;;;;5090178;28;20408;-63
2021/05/25 10:25:19;;;;;;;0.80;0.30;;;;;;;;;;5084059;28;20394;-62
2021/05/25 10:27:47;;;;;;;0.90;0.40;;;;;;;;;;5090555;28;20440;-63
2021/05/25 10:30:22;;;;;;;2.90;0.93;;;;;;;;;;5080204;28;20413;-63
2021/05/25 10:32:49;;;;;;;0.40;0.40;;;;;;;;;;5070326;28;20416;-61
2021/05/25 10:35:19;;;;;;;0.60;0.50;;;;;;;;;;5072897;28;20593;-63
2021/05/25 10:38:04;;;;;;;0.60;0.53;;;;;;;;;;5074388;28;20425;-63
2021/05/25 10:40:40;;;;;;;12.43;0.60;;;;;;;;;;5074179;28;20401;-63
2021/05/25 10:43:24;;;;;;;0.43;0.40;;;;;;;;;;5074165;28;20423;-65
2021/05/25 10:45:50;;;;;;;0.80;0.40;;;;;;;;;;5091039;28;20458;-63
2021/05/25 10:48:18;;;;;;;0.50;0.40;;;;;;;;;;5094255;28;20240;-62
2021/05/25 10:50:50;;;;;;;0.60;0.50;;;;;;;;;;5094022;28;20254;-64
2021/05/25 10:53:17;;;;;;;1.45;0.40;;;;;;;;;;5094939;28;20166;-63
2021/05/25 10:55:44;;;;;;;0.40;0.40;;;;;;;;;;5094469;28;20698;-63
2021/05/25 10:58:33;;;;;;;0.50;0.50;;;;;;;;;;5094690;28;20576;-63
2021/05/25 11:01:00;;;;;;;1.05;1.05;;;;;;;;;;5094602;28;20242;-63
2021/05/25 11:03:26;;;;;;;0.30;0.30;;;;;;;;;;5094231;28;20240;-63
2021/05/25 11:05:54;;;;;;;0.60;0.60;;;;;;;;;;5094418;28;20205;-63
2021/05/25 11:08:21;;;;;;;0.40;0.40;;;;;;;;;;5077628;28;20179;-63
2021/05/25 11:10:52;;;;;;;0.40;0.40;;;;;;;;;;5099172;28;20193;-65
2021/05/25 11:13:20;;;;;;;0.40;0.40;;;;;;;;;;5098561;28;20178;-64
2021/05/25 11:16:09;;;;;;;0.40;0.30;;;;;;;;;;5094042;28;20303;-64
2021/05/25 11:19:20;;;;;;;0.75;0.63;;;;;;;;;;5094134;28;20170;-64
2021/05/25 11:25:00;;;;;;;0.40;0.40;;;;;;;;;;5094752;28;20181;-63
2021/05/25 11:27:35;;;;;;;0.40;0.40;;;;;;;;;;5092059;28;20206;-64
2021/05/25 11:30:05;;;;;;;0.40;0.40;;;;;;;;;;5094414;28;20724;-64
2021/05/25 11:32:37;;;;;;;0.50;0.50;;;;;;;;;;5094597;28;20658;-63
2021/05/25 11:35:07;;;;;;;1.20;0.47;;;;;;;;;;5094531;28;20219;-64
2021/05/25 11:37:37;;;;;;;0.73;0.70;;;;;;;;;;5094353;28;20182;-64
2021/05/25 11:40:07;;;;;;;0.40;0.37;;;;;;;;;;5094286;28;20397;-64
2021/05/25 11:42:33;;;;;;;0.43;0.43;;;;;;;;;;5094350;28;20446;-63
2021/05/25 11:45:00;;;;;;;4.77;1.30;;;;;;;;;;5093377;28;20412;-63
2021/05/25 11:47:26;;;;;;;0.40;0.30;;;;;;;;;;5092370;28;20504;-65
2021/05/25 11:49:52;;;;;;;0.63;0.40;;;;;;;;;;5093511;28;20401;-64
2021/05/25 11:52:24;;;;;;;0.77;0.77;;;;;;;;;;5092921;28;20427;-64
2021/05/25 11:54:52;;;;;;;0.40;0.30;;;;;;;;;;5093271;28;20452;-65
2021/05/25 11:57:27;;;;;;;0.40;0.40;;;;;;;;;;5092007;28;20428;-64
2021/05/25 11:59:53;;;;;;;0.40;0.40;;;;;;;;;;5091683;28;20410;-65
2021/05/25 12:02:29;;;;;;;0.50;0.40;;;;;;;;;;5092814;28;20371;-64
2021/05/25 12:05:16;;;;;;;0.80;0.80;;;;;;;;;;5092878;28;20400;-64
2021/05/25 12:07:47;;;;;;;0.50;0.50;;;;;;;;;;5092505;28;20432;-65
2021/05/25 12:10:14;;;;;;;0.40;0.40;;;;;;;;;;5092459;28;20408;-65
2021/05/25 12:12:42;;;;;;;0.50;0.50;;;;;;;;;;5092525;28;20403;-64
2021/05/25 12:15:17;;;;;;;0.50;0.50;;;;;;;;;;5093155;28;20966;-65
2021/05/25 12:17:45;;;;;;;0.40;0.40;;;;;;;;;;5092584;28;20194;-65
2021/05/25 12:20:16;;;;;;;0.50;0.50;;;;;;;;;;5092472;28;20408;-64
2021/05/25 12:22:43;;;;;;;0.40;0.40;;;;;;;;;;5092618;28;20428;-65
2021/05/25 12:25:14;;;;;;;1.10;0.43;;;;;;;;;;5092615;28;20171;-64
2021/05/25 12:27:41;;;;;;;1.03;0.60;;;;;;;;;;5093064;28;20787;-65
2021/05/25 12:30:08;;;;;;;0.70;0.63;;;;;;;;;;5092868;28;20896;-65
2021/05/25 12:32:34;;;;;;;0.60;0.60;;;;;;;;;;5093006;28;20492;-64
2021/05/25 12:35:00;;;;;;;0.40;0.30;;;;;;;;;;5092901;28;20992;-64
2021/05/25 12:37:26;;;;;;;1.63;0.40;;;;;;;;;;5092764;28;20432;-65
2021/05/25 12:40:05;;;;;;;0.80;0.80;;;;;;;;;;5092469;28;20424;-65
2021/05/25 12:42:35;;;;;;;1.85;1.10;;;;;;;;;;5092737;28;20400;-64
2021/05/25 12:45:05;;;;;;;0.50;0.50;;;;;;;;;;5092816;28;20665;-65
2021/05/25 12:47:48;;;;;;;0.50;0.50;;;;;;;;;;5092566;28;20416;-64
2021/05/25 12:50:14;;;;;;;0.60;0.53;;;;;;;;;;5092460;28;20431;-65
2021/05/25 12:52:40;;;;;;;0.40;0.30;;;;;;;;;;5092651;28;20852;-65
2021/05/25 12:55:11;;;;;;;0.50;0.50;;;;;;;;;;5092438;28;21151;-64
2021/05/25 12:57:49;;;;;;;0.70;0.47;;;;;;;;;;5091318;28;20432;-64
2021/05/25 13:00:16;;;;;;;1.00;0.70;;;;;;;;;;5090272;28;20522;-64
2021/05/25 13:02:43;;;;;;;0.40;0.40;;;;;;;;;;5089472;28;20406;-64
2021/05/25 13:05:13;;;;;;;0.43;0.43;;;;;;;;;;5091672;28;20405;-64
2021/05/25 13:08:02;;;;;;;0.60;0.60;;;;;;;;;;5091590;28;20543;-64
2021/05/25 13:10:41;;;;;;;0.47;0.47;;;;;;;;;;5091932;28;20795;-64
2021/05/25 13:13:10;;;;;;;0.57;0.50;;;;;;;;;;5091674;28;20416;-65
2021/05/25 13:15:38;;;;;;;0.57;0.57;;;;;;;;;;5091191;28;20445;-64
2021/05/25 13:18:04;;;;;;;0.40;0.40;;;;;;;;;;5090387;28;20470;-64
2021/05/25 13:20:30;;;;;;;0.50;0.50;;;;;;;;;;5090287;28;20401;-64
2021/05/25 13:22:56;;;;;;;0.57;0.57;;;;;;;;;;5091083;28;20179;-64
2021/05/25 13:25:29;;;;;;;0.40;0.33;;;;;;;;;;5092148;28;20429;-65
2021/05/25 13:27:55;;;;;;;0.30;0.30;;;;;;;;;;5086374;28;20447;-64
2021/05/25 13:30:32;;;;;;;0.40;0.30;;;;;;;;;;5074211;28;20988;-65
2021/05/25 13:32:58;;;;;;;0.40;0.40;;;;;;;;;;5089762;28;20408;-64
2021/05/25 13:35:25;;;;;;;0.40;0.30;;;;;;;;;;5089566;28;20479;-64
2021/05/25 13:37:51;;;;;;;0.60;0.40;;;;;;;;;;5091020;28;20966;-63
2021/05/25 13:40:17;;;;;;;0.40;0.40;;;;;;;;;;5091490;28;20378;-64
2021/05/25 13:42:43;;;;;;;0.40;0.40;;;;;;;;;;5091720;28;20406;-64
2021/05/25 13:45:09;;;;;;;0.80;0.60;;;;;;;;;;5092265;28;20688;-63
2021/05/25 13:47:35;;;;;;;0.60;0.60;;;;;;;;;;5091926;28;20452;-63
2021/05/25 13:50:01;;;;;;;0.70;0.70;;;;;;;;;;5092158;28;20177;-64
2021/05/25 13:52:27;;;;;;;0.70;0.70;;;;;;;;;;5091893;28;20413;-65
2021/05/25 13:54:53;;;;;;;0.50;0.47;;;;;;;;;;5087177;28;20492;-65
2021/05/25 13:57:24;;;;;;;0.40;0.30;;;;;;;;;;5090672;28;20411;-64
2021/05/25 14:00:09;;;;;;;0.47;0.47;;;;;;;;;;5090115;28;20401;-65
2021/05/25 14:02:35;;;;;;;0.60;0.50;;;;;;;;;;5089745;28;20960;-63
2021/05/25 14:05:01;;;;;;;0.40;0.40;;;;;;;;;;5089705;28;20466;-64
2021/05/25 14:07:27;;;;;;;0.60;0.60;;;;;;;;;;5088996;28;20431;-64
2021/05/25 14:09:53;;;;;;;0.40;0.30;;;;;;;;;;5089972;28;20412;-61
2021/05/25 14:12:19;;;;;;;0.40;0.30;;;;;;;;;;5085911;28;20423;-64
2021/05/25 14:14:45;;;;;;;1.13;0.63;;;;;;;;;;5091030;28;20459;-64
2021/05/25 14:17:11;;;;;;;0.53;0.50;;;;;;;;;;5090965;28;20429;-64
2021/05/25 14:19:37;;;;;;;0.40;0.40;;;;;;;;;;5091038;28;20412;-64
2021/05/25 14:22:03;;;;;;;0.50;0.50;;;;;;;;;;5091383;28;20495;-64
2021/05/25 14:24:29;;;;;;;2.70;0.90;;;;;;;;;;5073036;28;20427;-64
2021/05/25 14:26:55;;;;;;;0.57;0.57;;;;;;;;;;5072808;28;20813;-64
2021/05/25 14:29:21;;;;;;;0.37;0.33;;;;;;;;;;5090915;28;20903;-64
2021/05/25 14:31:47;;;;;;;0.30;0.30;;;;;;;;;;5091071;28;20412;-64
2021/05/25 14:34:13;;;;;;;0.40;0.37;;;;;;;;;;5091411;28;20462;-64
2021/05/25 14:36:39;;;;;;;0.40;0.30;;;;;;;;;;5091173;28;20428;-64
2021/05/25 14:39:06;;;;;;;1.07;0.87;;;;;;;;;;5091178;28;20401;-64
2021/05/25 14:41:32;;;;;;;0.50;0.50;;;;;;;;;;5091551;28;20762;-64
2021/05/25 14:43:58;;;;;;;0.40;0.40;;;;;;;;;;5091690;28;20503;-64
2021/05/25 14:46:24;;;;;;;0.93;0.60;;;;;;;;;;5091145;28;20515;-64
2021/05/25 14:48:51;;;;;;;0.55;0.47;;;;;;;;;;5085404;28;20409;-64
2021/05/25 14:51:17;;;;;;;0.67;0.67;;;;;;;;;;5089844;28;20178;-64
2021/05/25 14:53:46;;;;;;;0.65;0.57;;;;;;;;;;5089770;28;20393;-64
2021/05/25 14:56:23;;;;;;;0.70;0.70;;;;;;;;;;5090381;28;20265;-64